Terminal Aerodrome Forecast
Issued by NWS

Home | Current Version | Previous Version | Text Only | Print | Product List | Glossary On
Versions: 1 2 3 4 5 6 7 8 9 10 11 12 13 14 15 16 17
000
FTUS41 KGYX 280854 AAA
TAFLEB
TAF AMD
KLEB 280854Z 2809/2906 00000KT P6SM FEW006 BKN100
      TEMPO 2809/2812 BKN007
     FM281200 33005KT P6SM SCT050 BKN100=

USA.gov is the U.S. government's official web portal to all federal, state and local government web resources and services.